Wetmore, Colorado
Current Conditions -  °F | °C
As of 1:35 AM on Monday 22 Dec 2014 (Local Time) from K1V6 Reporting Station
Drizzle Drizzle  
Wind Chill: 35°   Ceiling: 3700
Heat Index: 41°   Visibility: 10mi
Dew Point: 34°   Wind: 9mph
Humidity: 76%   Direction: 90°E
Pressure: 29.7"   Gusts: NA
Location:  38.24°N, 105.09°W
Report Text: K1V6 220835Z AUTO 09008KT 10SM -DZ BKN037 BKN044 OVC060 05/01 A2970 RMK AO2
Loading
Personal Weather Stations






























Interactive Weather Map New forecast layout! Learn more

10-Day Weather Forecast

Advertisements
Track Severe Weather on mobile